sensor_id;sensor_type;location;lat;lon;timestamp;pressure;altitude;pressure_sealevel;temperature;humidity
39435;BME280;66825;51.880;-0.518;2023-02-21T00:01:15;101157.91;;;16.24;47.26
39435;BME280;66825;51.880;-0.518;2023-02-21T00:03:59;101162.81;;;16.27;47.05
39435;BME280;66825;51.880;-0.518;2023-02-21T00:06:44;101158.97;;;16.23;47.26
39435;BME280;66825;51.880;-0.518;2023-02-21T00:09:28;101171.25;;;16.26;46.84
39435;BME280;66825;51.880;-0.518;2023-02-21T00:12:12;101141.88;;;16.07;47.23
39435;BME280;66825;51.880;-0.518;2023-02-21T00:14:56;101175.03;;;16.25;46.96
39435;BME280;66825;51.880;-0.518;2023-02-21T00:17:40;101177.22;;;16.23;46.97
39435;BME280;66825;51.880;-0.518;2023-02-21T00:20:24;101168.25;;;16.22;47.40
39435;BME280;66825;51.880;-0.518;2023-02-21T00:23:09;101157.66;;;16.10;47.26
39435;BME280;66825;51.880;-0.518;2023-02-21T00:25:53;101124.50;;;15.93;47.22
39435;BME280;66825;51.880;-0.518;2023-02-21T00:28:37;101165.78;;;16.20;47.59
39435;BME280;66825;51.880;-0.518;2023-02-21T00:31:21;101175.03;;;16.19;47.24
39435;BME280;66825;51.880;-0.518;2023-02-21T00:34:06;101190.81;;;16.17;47.36
39435;BME280;66825;51.880;-0.518;2023-02-21T00:36:51;101174.50;;;16.17;47.15
39435;BME280;66825;51.880;-0.518;2023-02-21T00:39:36;101165.50;;;16.01;47.31
39435;BME280;66825;51.880;-0.518;2023-02-21T00:42:20;101160.34;;;16.15;47.49
39435;BME280;66825;51.880;-0.518;2023-02-21T00:45:04;101157.63;;;16.15;46.74
39435;BME280;66825;51.880;-0.518;2023-02-21T00:47:49;101153.28;;;16.14;46.96
39435;BME280;66825;51.880;-0.518;2023-02-21T00:50:33;101153.56;;;16.13;47.19
39435;BME280;66825;51.880;-0.518;2023-02-21T00:53:17;101161.72;;;16.13;47.42
39435;BME280;66825;51.880;-0.518;2023-02-21T00:56:01;101119.34;;;15.91;47.22
39435;BME280;66825;51.880;-0.518;2023-02-21T00:58:45;101045.41;;;15.48;47.20
39435;BME280;66825;51.880;-0.518;2023-02-21T01:01:29;101146.78;;;16.10;47.30
39435;BME280;66825;51.880;-0.518;2023-02-21T01:04:14;101098.13;;;15.78;47.05
39435;BME280;66825;51.880;-0.518;2023-02-21T01:06:58;101138.88;;;16.09;47.25
39435;BME280;66825;51.880;-0.518;2023-02-21T01:09:42;101141.59;;;16.09;47.25
39435;BME280;66825;51.880;-0.518;2023-02-21T01:12:26;101142.72;;;16.08;47.19
39435;BME280;66825;51.880;-0.518;2023-02-21T01:15:09;101142.16;;;16.06;47.09
39435;BME280;66825;51.880;-0.518;2023-02-21T01:17:53;101127.75;;;16.05;47.35
39435;BME280;66825;51.880;-0.518;2023-02-21T01:20:37;101118.78;;;16.04;47.13
39435;BME280;66825;51.880;-0.518;2023-02-21T01:23:21;101116.59;;;16.01;47.19
39435;BME280;66825;51.880;-0.518;2023-02-21T01:26:08;101127.22;;;16.03;47.28
39435;BME280;66825;51.880;-0.518;2023-02-21T01:28:52;101111.16;;;16.01;47.55
39435;BME280;66825;51.880;-0.518;2023-02-21T01:31:36;101099.22;;;15.97;47.15
39435;BME280;66825;51.880;-0.518;2023-02-21T01:34:20;101121.22;;;16.01;47.56
39435;BME280;66825;51.880;-0.518;2023-02-21T01:37:04;101119.59;;;16.00;47.05
39435;BME280;66825;51.880;-0.518;2023-02-21T01:39:48;101104.38;;;15.94;46.89
39435;BME280;66825;51.880;-0.518;2023-02-21T01:42:32;101072.84;;;15.77;47.36
39435;BME280;66825;51.880;-0.518;2023-02-21T01:48:21;101102.47;;;15.89;47.23
39435;BME280;66825;51.880;-0.518;2023-02-21T01:51:07;101101.13;;;15.97;47.24
39435;BME280;66825;51.880;-0.518;2023-02-21T01:53:53;101103.31;;;15.95;47.03
39435;BME280;66825;51.880;-0.518;2023-02-21T01:56:38;101090.78;;;15.94;47.36
39435;BME280;66825;51.880;-0.518;2023-02-21T01:59:23;101097.88;;;15.95;46.87
39435;BME280;66825;51.880;-0.518;2023-02-21T02:02:16;101098.16;;;15.93;47.03
39435;BME280;66825;51.880;-0.518;2023-02-21T02:05:02;101074.75;;;15.82;47.38
39435;BME280;66825;51.880;-0.518;2023-02-21T02:07:48;101086.75;;;15.86;47.22
39435;BME280;66825;51.880;-0.518;2023-02-21T02:10:32;101088.59;;;15.91;46.87
39435;BME280;66825;51.880;-0.518;2023-02-21T02:18:58;101075.59;;;15.87;47.19
39435;BME280;66825;51.880;-0.518;2023-02-21T02:39:46;101061.72;;;15.84;47.43
39435;BME280;66825;51.880;-0.518;2023-02-21T02:44:59;101050.56;;;15.80;47.31
39435;BME280;66825;51.880;-0.518;2023-02-21T02:47:50;101040.50;;;15.81;47.10
39435;BME280;66825;51.880;-0.518;2023-02-21T02:50:19;101055.44;;;15.78;46.82
39435;BME280;66825;51.880;-0.518;2023-02-21T02:52:54;101018.25;;;15.53;47.27
39435;BME280;66825;51.880;-0.518;2023-02-21T02:58:00;101045.38;;;15.79;47.01
39435;BME280;66825;51.880;-0.518;2023-02-21T03:00:27;101050.00;;;15.78;47.08
39435;BME280;66825;51.880;-0.518;2023-02-21T03:11:16;101044.88;;;15.77;47.19
39435;BME280;66825;51.880;-0.518;2023-02-21T03:19:17;101035.38;;;15.74;47.43
39435;BME280;66825;51.880;-0.518;2023-02-21T03:24:33;101024.75;;;15.72;47.00
39435;BME280;66825;51.880;-0.518;2023-02-21T03:27:03;101029.38;;;15.72;47.33
39435;BME280;66825;51.880;-0.518;2023-02-21T03:29:31;101036.69;;;15.71;47.03
39435;BME280;66825;51.880;-0.518;2023-02-21T03:32:05;101029.66;;;15.70;47.10
39435;BME280;66825;51.880;-0.518;2023-02-21T03:34:39;101036.97;;;15.70;47.18
39435;BME280;66825;51.880;-0.518;2023-02-21T03:37:08;101019.06;;;15.59;47.13
39435;BME280;66825;51.880;-0.518;2023-02-21T03:39:34;100993.81;;;15.53;47.34
39435;BME280;66825;51.880;-0.518;2023-02-21T03:41:59;101026.41;;;15.68;47.18
39435;BME280;66825;51.880;-0.518;2023-02-21T03:44:25;101016.31;;;15.69;47.01
39435;BME280;66825;51.880;-0.518;2023-02-21T03:46:50;100991.09;;;15.58;47.12
39435;BME280;66825;51.880;-0.518;2023-02-21T03:49:16;100927.56;;;15.13;46.85
39435;BME280;66825;51.880;-0.518;2023-02-21T03:51:41;101029.38;;;15.67;47.35
39435;BME280;66825;51.880;-0.518;2023-02-21T03:54:07;100883.34;;;14.91;47.21
39435;BME280;66825;51.880;-0.518;2023-02-21T03:56:32;101005.19;;;15.65;46.83
39435;BME280;66825;51.880;-0.518;2023-02-21T03:58:58;100956.63;;;15.43;47.45
39435;BME280;66825;51.880;-0.518;2023-02-21T04:01:23;100865.47;;;14.85;47.14
39435;BME280;66825;51.880;-0.518;2023-02-21T04:03:49;101017.16;;;15.64;47.25
39435;BME280;66825;51.880;-0.518;2023-02-21T04:06:14;100988.38;;;15.63;47.30
39435;BME280;66825;51.880;-0.518;2023-02-21T04:08:40;100989.97;;;15.64;46.86
39435;BME280;66825;51.880;-0.518;2023-02-21T04:11:05;100985.66;;;15.58;47.18
39435;BME280;66825;51.880;-0.518;2023-02-21T04:13:31;100996.53;;;15.63;47.22
39435;BME280;66825;51.880;-0.518;2023-02-21T04:15:56;100994.91;;;15.62;47.14
39435;BME280;66825;51.880;-0.518;2023-02-21T04:18:22;100985.91;;;15.62;47.16
39435;BME280;66825;51.880;-0.518;2023-02-21T04:20:47;100988.63;;;15.62;46.90
39435;BME280;66825;51.880;-0.518;2023-02-21T04:23:20;100987.84;;;15.61;47.05
39435;BME280;66825;51.880;-0.518;2023-02-21T04:25:47;100901.25;;;15.03;47.20
39435;BME280;66825;51.880;-0.518;2023-02-21T04:28:13;100997.06;;;15.60;47.05
39435;BME280;66825;51.880;-0.518;2023-02-21T04:30:38;100998.44;;;15.57;47.28
39435;BME280;66825;51.880;-0.518;2023-02-21T04:33:04;100985.41;;;15.60;47.28
39435;BME280;66825;51.880;-0.518;2023-02-21T04:35:29;100985.66;;;15.58;46.92
39435;BME280;66825;51.880;-0.518;2023-02-21T04:37:55;101000.84;;;15.59;47.17
39435;BME280;66825;51.880;-0.518;2023-02-21T04:40:21;101005.50;;;15.59;47.03
39435;BME280;66825;51.880;-0.518;2023-02-21T04:42:47;100971.25;;;15.47;47.28
39435;BME280;66825;51.880;-0.518;2023-02-21T04:45:12;100989.44;;;15.57;47.12
39435;BME280;66825;51.880;-0.518;2023-02-21T04:47:37;100949.84;;;15.30;47.21
39435;BME280;66825;51.880;-0.518;2023-02-21T04:50:04;100996.78;;;15.56;47.08
39435;BME280;66825;51.880;-0.518;2023-02-21T04:52:30;101003.84;;;15.57;47.14
39435;BME280;66825;51.880;-0.518;2023-02-21T04:54:55;100990.56;;;15.56;47.32
39435;BME280;66825;51.880;-0.518;2023-02-21T04:57:21;101006.03;;;15.55;47.49
39435;BME280;66825;51.880;-0.518;2023-02-21T04:59:47;101006.84;;;15.56;47.13
39435;BME280;66825;51.880;-0.518;2023-02-21T05:02:12;101002.50;;;15.55;47.14
39435;BME280;66825;51.880;-0.518;2023-02-21T05:04:38;101019.59;;;15.55;47.19
39435;BME280;66825;51.880;-0.518;2023-02-21T05:07:04;100982.94;;;15.43;47.13
39435;BME280;66825;51.880;-0.518;2023-02-21T05:09:30;101004.38;;;15.54;47.12
39435;BME280;66825;51.880;-0.518;2023-02-21T05:11:56;100986.47;;;15.53;46.85
39435;BME280;66825;51.880;-0.518;2023-02-21T05:14:21;100998.16;;;15.54;47.16
39435;BME280;66825;51.880;-0.518;2023-02-21T05:16:47;100987.56;;;15.52;46.86
39435;BME280;66825;51.880;-0.518;2023-02-21T05:19:12;100986.75;;;15.47;47.14
39435;BME280;66825;51.880;-0.518;2023-02-21T05:21:53;100956.63;;;15.28;47.27
39435;BME280;66825;51.880;-0.518;2023-02-21T05:24:19;100911.56;;;14.96;47.21
39435;BME280;66825;51.880;-0.518;2023-02-21T05:26:44;100907.22;;;14.95;46.96
39435;BME280;66825;51.880;-0.518;2023-02-21T05:29:10;100995.19;;;15.50;47.17
39435;BME280;66825;51.880;-0.518;2023-02-21T05:31:35;100988.91;;;15.50;47.25
39435;BME280;66825;51.880;-0.518;2023-02-21T05:34:01;100988.09;;;15.49;47.47
39435;BME280;66825;51.880;-0.518;2023-02-21T05:36:26;100991.63;;;15.50;47.32
39435;BME280;66825;51.880;-0.518;2023-02-21T05:38:53;100990.03;;;15.49;47.47
39435;BME280;66825;51.880;-0.518;2023-02-21T05:41:20;100991.09;;;15.48;47.11
39435;BME280;66825;51.880;-0.518;2023-02-21T05:43:47;100989.19;;;15.48;47.26
39435;BME280;66825;51.880;-0.518;2023-02-21T05:46:33;100989.19;;;15.48;47.44
39435;BME280;66825;51.880;-0.518;2023-02-21T05:49:01;100990.28;;;15.47;46.98
39435;BME280;66825;51.880;-0.518;2023-02-21T05:51:32;100994.91;;;15.47;47.26
39435;BME280;66825;51.880;-0.518;2023-02-21T05:53:58;100992.19;;;15.47;47.30
39435;BME280;66825;51.880;-0.518;2023-02-21T05:56:23;100991.34;;;15.46;47.11
39435;BME280;66825;51.880;-0.518;2023-02-21T05:58:49;100978.06;;;15.39;47.26
39435;BME280;66825;51.880;-0.518;2023-02-21T06:01:15;100954.47;;;15.30;47.03
39435;BME280;66825;51.880;-0.518;2023-02-21T06:03:40;100846.97;;;14.56;47.20
39435;BME280;66825;51.880;-0.518;2023-02-21T06:06:06;100979.16;;;15.44;47.31
39435;BME280;66825;51.880;-0.518;2023-02-21T06:08:31;100960.69;;;15.35;47.50
39435;BME280;66825;51.880;-0.518;2023-02-21T06:10:57;100967.50;;;15.38;47.07
39435;BME280;66825;51.880;-0.518;2023-02-21T06:13:22;100928.66;;;15.17;46.98
39435;BME280;66825;51.880;-0.518;2023-02-21T06:15:48;100975.63;;;15.43;47.05
39435;BME280;66825;51.880;-0.518;2023-02-21T06:18:14;100975.63;;;15.43;47.13
39435;BME280;66825;51.880;-0.518;2023-02-21T06:20:41;100971.28;;;15.42;47.08
39435;BME280;66825;51.880;-0.518;2023-02-21T06:23:06;100958.00;;;15.25;46.96
39435;BME280;66825;51.880;-0.518;2023-02-21T06:25:31;100962.31;;;15.31;47.16
39435;BME280;66825;51.880;-0.518;2023-02-21T06:27:57;100872.22;;;14.77;47.32
39435;BME280;66825;51.880;-0.518;2023-02-21T06:30:22;100972.38;;;15.41;47.14
39435;BME280;66825;51.880;-0.518;2023-02-21T06:32:48;100983.50;;;15.39;47.11
39435;BME280;66825;51.880;-0.518;2023-02-21T06:35:13;100970.72;;;15.40;47.23
39435;BME280;66825;51.880;-0.518;2023-02-21T06:37:39;100946.03;;;15.16;47.43
39435;BME280;66825;51.880;-0.518;2023-02-21T06:40:05;100966.38;;;15.39;47.01
39435;BME280;66825;51.880;-0.518;2023-02-21T06:42:30;100969.94;;;15.39;47.19
39435;BME280;66825;51.880;-0.518;2023-02-21T06:44:56;100972.66;;;15.39;47.21
39435;BME280;66825;51.880;-0.518;2023-02-21T06:47:21;100971.28;;;15.37;47.18
39435;BME280;66825;51.880;-0.518;2023-02-21T06:49:47;100908.31;;;14.99;47.28
39435;BME280;66825;51.880;-0.518;2023-02-21T06:52:13;100972.94;;;15.38;47.22
39435;BME280;66825;51.880;-0.518;2023-02-21T06:54:38;100903.69;;;14.94;47.30
39435;BME280;66825;51.880;-0.518;2023-02-21T06:57:04;100924.59;;;15.14;47.21
39435;BME280;66825;51.880;-0.518;2023-02-21T06:59:30;100965.03;;;15.36;47.19
39435;BME280;66825;51.880;-0.518;2023-02-21T07:01:55;100976.72;;;15.37;47.00
39435;BME280;66825;51.880;-0.518;2023-02-21T07:04:21;100954.72;;;15.23;47.22
39435;BME280;66825;51.880;-0.518;2023-02-21T07:06:47;100958.81;;;15.36;47.32
39435;BME280;66825;51.880;-0.518;2023-02-21T07:09:12;100952.81;;;15.29;47.39
39435;BME280;66825;51.880;-0.518;2023-02-21T07:11:39;100979.69;;;15.35;47.66
39435;BME280;66825;51.880;-0.518;2023-02-21T07:14:05;100964.50;;;15.34;47.02
39435;BME280;66825;51.880;-0.518;2023-02-21T07:16:31;100941.97;;;15.23;47.37
39435;BME280;66825;51.880;-0.518;2023-02-21T07:18:56;100966.38;;;15.34;47.13
39435;BME280;66825;51.880;-0.518;2023-02-21T07:21:22;100952.81;;;15.34;47.26
39435;BME280;66825;51.880;-0.518;2023-02-21T07:23:49;100949.31;;;15.33;47.27
39435;BME280;66825;51.880;-0.518;2023-02-21T07:26:15;100950.09;;;15.34;47.22
39435;BME280;66825;51.880;-0.518;2023-02-21T07:28:40;100953.63;;;15.29;47.26
39435;BME280;66825;51.880;-0.518;2023-02-21T07:31:06;100972.66;;;15.34;47.20
39435;BME280;66825;51.880;-0.518;2023-02-21T07:33:32;100962.03;;;15.33;47.09
39435;BME280;66825;51.880;-0.518;2023-02-21T07:35:58;100955.25;;;15.30;47.50
39435;BME280;66825;51.880;-0.518;2023-02-21T07:38:26;100960.69;;;15.35;47.13
39435;BME280;66825;51.880;-0.518;2023-02-21T07:40:56;100969.38;;;15.37;47.40
39435;BME280;66825;51.880;-0.518;2023-02-21T07:43:24;100972.38;;;15.41;47.67
39435;BME280;66825;51.880;-0.518;2023-02-21T07:45:50;100954.72;;;15.44;47.66
39435;BME280;66825;51.880;-0.518;2023-02-21T07:48:15;100957.41;;;15.44;47.44
39435;BME280;66825;51.880;-0.518;2023-02-21T07:50:41;100955.25;;;15.51;47.57
39435;BME280;66825;51.880;-0.518;2023-02-21T07:53:07;100967.19;;;15.55;47.27
39435;BME280;66825;51.880;-0.518;2023-02-21T07:55:33;100861.63;;;14.97;47.65
39435;BME280;66825;51.880;-0.518;2023-02-21T07:57:58;100962.31;;;15.62;47.42
39435;BME280;66825;51.880;-0.518;2023-02-21T08:00:24;100981.59;;;15.66;47.36
39435;BME280;66825;51.880;-0.518;2023-02-21T08:02:50;100962.81;;;15.64;47.23
39435;BME280;66825;51.880;-0.518;2023-02-21T08:05:17;100940.28;;;15.53;47.26
39435;BME280;66825;51.880;-0.518;2023-02-21T08:07:43;100982.09;;;15.78;47.35
39435;BME280;66825;51.880;-0.518;2023-02-21T08:10:09;100985.06;;;15.82;47.16
39435;BME280;66825;51.880;-0.518;2023-02-21T08:12:34;100983.47;;;15.86;47.16
39435;BME280;66825;51.880;-0.518;2023-02-21T08:15:00;100994.63;;;15.90;47.11
39435;BME280;66825;51.880;-0.518;2023-02-21T08:17:25;100992.16;;;15.93;47.16
39435;BME280;66825;51.880;-0.518;2023-02-21T08:19:51;100981.56;;;15.97;47.22
39435;BME280;66825;51.880;-0.518;2023-02-21T08:22:17;100976.09;;;16.02;47.16
39435;BME280;66825;51.880;-0.518;2023-02-21T08:24:43;100862.16;;;15.35;46.90
39435;BME280;66825;51.880;-0.518;2023-02-21T08:27:08;100982.84;;;16.15;46.97
39435;BME280;66825;51.880;-0.518;2023-02-21T08:29:34;100984.47;;;16.21;46.73
39435;BME280;66825;51.880;-0.518;2023-02-21T08:31:59;100940.47;;;16.03;46.77
39435;BME280;66825;51.880;-0.518;2023-02-21T08:34:24;100968.94;;;16.22;46.81
39435;BME280;66825;51.880;-0.518;2023-02-21T08:36:53;100977.06;;;16.32;46.75
39435;BME280;66825;51.880;-0.518;2023-02-21T08:39:19;100987.91;;;16.37;47.02
39435;BME280;66825;51.880;-0.518;2023-02-21T08:41:45;100981.94;;;16.40;46.55
39435;BME280;66825;51.880;-0.518;2023-02-21T08:44:15;100995.78;;;16.44;46.34
39435;BME280;66825;51.880;-0.518;2023-02-21T08:46:41;100949.88;;;16.27;46.56
39435;BME280;66825;51.880;-0.518;2023-02-21T08:49:08;100981.88;;;16.50;46.76
39435;BME280;66825;51.880;-0.518;2023-02-21T08:51:34;100941.72;;;16.32;46.18
39435;BME280;66825;51.880;-0.518;2023-02-21T08:54:00;100860.34;;;15.91;46.51
39435;BME280;66825;51.880;-0.518;2023-02-21T08:56:26;100977.44;;;16.65;46.02
39435;BME280;66825;51.880;-0.518;2023-02-21T08:58:52;100987.50;;;16.70;46.45
39435;BME280;66825;51.880;-0.518;2023-02-21T09:01:20;100989.38;;;16.74;45.83
39435;BME280;66825;51.880;-0.518;2023-02-21T09:03:45;100984.97;;;16.78;46.29
39435;BME280;66825;51.880;-0.518;2023-02-21T09:06:12;100944.53;;;16.61;46.42
39435;BME280;66825;51.880;-0.518;2023-02-21T09:08:37;100922.28;;;16.54;46.77
39435;BME280;66825;51.880;-0.518;2023-02-21T09:11:05;100979.47;;;16.94;46.59
39435;BME280;66825;51.880;-0.518;2023-02-21T09:13:30;100985.41;;;17.01;47.16
39435;BME280;66825;51.880;-0.518;2023-02-21T09:16:00;100971.25;;;17.04;47.04
39435;BME280;66825;51.880;-0.518;2023-02-21T09:18:26;100985.59;;;17.15;46.87
39435;BME280;66825;51.880;-0.518;2023-02-21T09:20:52;100966.59;;;17.10;47.13
39435;BME280;66825;51.880;-0.518;2023-02-21T09:23:26;100978.16;;;17.26;47.35
39435;BME280;66825;51.880;-0.518;2023-02-21T09:25:52;100978.63;;;17.33;47.40
39435;BME280;66825;51.880;-0.518;2023-02-21T09:28:19;100964.16;;;17.38;47.36
39435;BME280;66825;51.880;-0.518;2023-02-21T09:30:45;100965.44;;;17.45;47.59
39435;BME280;66825;51.880;-0.518;2023-02-21T09:33:11;100959.72;;;17.47;47.98
39435;BME280;66825;51.880;-0.518;2023-02-21T09:35:36;100947.22;;;17.46;48.65
39435;BME280;66825;51.880;-0.518;2023-02-21T09:38:03;100883.53;;;17.07;48.14
39435;BME280;66825;51.880;-0.518;2023-02-21T09:43:02;100939.16;;;17.60;48.56
39435;BME280;66825;51.880;-0.518;2023-02-21T09:45:32;100869.00;;;17.22;48.51
39435;BME280;66825;51.880;-0.518;2023-02-21T09:48:03;100841.84;;;17.12;49.09
39435;BME280;66825;51.880;-0.518;2023-02-21T09:50:30;100957.13;;;17.90;48.65
39435;BME280;66825;51.880;-0.518;2023-02-21T09:52:59;100955.19;;;17.91;48.46
39435;BME280;66825;51.880;-0.518;2023-02-21T09:55:32;100954.28;;;18.01;47.25
39435;BME280;66825;51.880;-0.518;2023-02-21T09:57:59;100959.97;;;18.04;47.14
39435;BME280;66825;51.880;-0.518;2023-02-21T10:00:34;100952.31;;;18.06;47.04
39435;BME280;66825;51.880;-0.518;2023-02-21T10:03:31;100958.53;;;18.12;47.33
39435;BME280;66825;51.880;-0.518;2023-02-21T10:09:05;100950.19;;;18.22;47.26
39435;BME280;66825;51.880;-0.518;2023-02-21T10:12:03;100946.59;;;18.27;46.99
39435;BME280;66825;51.880;-0.518;2023-02-21T10:17:20;100942.91;;;18.37;46.33
39435;BME280;66825;51.880;-0.518;2023-02-21T10:19:52;100853.34;;;17.82;45.62
39435;BME280;66825;51.880;-0.518;2023-02-21T10:22:30;100945.38;;;18.38;44.43
39435;BME280;66825;51.880;-0.518;2023-02-21T10:24:57;100935.56;;;18.37;44.17
39435;BME280;66825;51.880;-0.518;2023-02-21T10:27:29;100934.47;;;18.38;44.15
39435;BME280;66825;51.880;-0.518;2023-02-21T10:30:03;100831.84;;;17.80;44.34
39435;BME280;66825;51.880;-0.518;2023-02-21T10:32:30;100884.81;;;18.17;44.61
39435;BME280;66825;51.880;-0.518;2023-02-21T10:34:57;100905.69;;;18.27;44.47
39435;BME280;66825;51.880;-0.518;2023-02-21T10:37:34;100929.22;;;18.42;44.80
39435;BME280;66825;51.880;-0.518;2023-02-21T10:42:48;100887.19;;;18.24;44.89
39435;BME280;66825;51.880;-0.518;2023-02-21T10:45:17;100929.16;;;18.47;44.77
39435;BME280;66825;51.880;-0.518;2023-02-21T10:48:00;100931.88;;;18.47;44.52
39435;BME280;66825;51.880;-0.518;2023-02-21T10:58:39;100929.94;;;18.48;44.92
39435;BME280;66825;51.880;-0.518;2023-02-21T11:06:50;100927.66;;;18.55;44.56
39435;BME280;66825;51.880;-0.518;2023-02-21T11:09:43;100924.44;;;18.53;44.08
39435;BME280;66825;51.880;-0.518;2023-02-21T11:14:41;100922.81;;;18.52;44.18
39435;BME280;66825;51.880;-0.518;2023-02-21T11:17:20;100933.72;;;18.52;44.44
39435;BME280;66825;51.880;-0.518;2023-02-21T11:22:23;100918.47;;;18.51;44.78
39435;BME280;66825;51.880;-0.518;2023-02-21T11:24:54;100918.16;;;18.52;45.10
39435;BME280;66825;51.880;-0.518;2023-02-21T11:27:23;100915.44;;;18.52;44.91
39435;BME280;66825;51.880;-0.518;2023-02-21T11:29:50;100925.78;;;18.55;44.26
39435;BME280;66825;51.880;-0.518;2023-02-21T11:32:33;100910.81;;;18.53;43.26
39435;BME280;66825;51.880;-0.518;2023-02-21T11:35:24;100908.66;;;18.50;43.42
39435;BME280;66825;51.880;-0.518;2023-02-21T11:37:56;100901.66;;;18.44;43.39
39435;BME280;66825;51.880;-0.518;2023-02-21T11:40:25;100898.91;;;18.44;43.29
39435;BME280;66825;51.880;-0.518;2023-02-21T11:43:13;100903.06;;;18.41;42.97
39435;BME280;66825;51.880;-0.518;2023-02-21T11:45:47;100900.31;;;18.41;43.59
39435;BME280;66825;51.880;-0.518;2023-02-21T11:48:17;100888.31;;;18.42;44.00
39435;BME280;66825;51.880;-0.518;2023-02-21T11:50:48;100867.81;;;18.45;43.79
39435;BME280;66825;51.880;-0.518;2023-02-21T11:53:25;100863.97;;;18.46;43.92
39435;BME280;66825;51.880;-0.518;2023-02-21T12:04:38;100857.38;;;18.47;43.80
39435;BME280;66825;51.880;-0.518;2023-02-21T12:07:45;100844.56;;;18.47;43.82
39435;BME280;66825;51.880;-0.518;2023-02-21T12:10:29;100845.91;;;18.50;43.79
39435;BME280;66825;51.880;-0.518;2023-02-21T12:29:40;100820.88;;;18.62;43.86
39435;BME280;66825;51.880;-0.518;2023-02-21T12:32:32;100814.31;;;18.63;43.96
39435;BME280;66825;51.880;-0.518;2023-02-21T12:37:54;100812.38;;;18.63;43.97
39435;BME280;66825;51.880;-0.518;2023-02-21T12:43:00;100799.28;;;18.65;43.93
39435;BME280;66825;51.880;-0.518;2023-02-21T12:45:50;100817.56;;;18.65;43.86
39435;BME280;66825;51.880;-0.518;2023-02-21T12:51:01;100796.44;;;18.70;43.97
39435;BME280;66825;51.880;-0.518;2023-02-21T12:53:41;100781.78;;;18.66;43.74
39435;BME280;66825;51.880;-0.518;2023-02-21T13:05:20;100755.03;;;18.68;43.88
39435;BME280;66825;51.880;-0.518;2023-02-21T13:07:56;100749.56;;;18.68;43.65
39435;BME280;66825;51.880;-0.518;2023-02-21T13:10:32;100749.84;;;18.67;44.21
39435;BME280;66825;51.880;-0.518;2023-02-21T13:13:11;100726.69;;;18.50;43.66
39435;BME280;66825;51.880;-0.518;2023-02-21T13:15:40;100748.31;;;18.61;44.13
39435;BME280;66825;51.880;-0.518;2023-02-21T13:18:09;100739.41;;;18.55;43.92
39435;BME280;66825;51.880;-0.518;2023-02-21T13:20:43;100751.47;;;18.68;43.64
39435;BME280;66825;51.880;-0.518;2023-02-21T13:28:35;100642.59;;;18.05;43.93
39435;BME280;66825;51.880;-0.518;2023-02-21T13:31:17;100737.81;;;18.68;43.79
39435;BME280;66825;51.880;-0.518;2023-02-21T13:33:51;100730.47;;;18.68;43.80
39435;BME280;66825;51.880;-0.518;2023-02-21T13:36:30;100726.91;;;18.68;43.78
39435;BME280;66825;51.880;-0.518;2023-02-21T13:39:09;100724.16;;;18.68;43.73
39435;BME280;66825;51.880;-0.518;2023-02-21T13:41:38;100698.56;;;18.50;44.14
39435;BME280;66825;51.880;-0.518;2023-02-21T13:44:18;100724.47;;;18.66;44.03
39435;BME280;66825;51.880;-0.518;2023-02-21T13:57:52;100697.28;;;18.75;44.05
39435;BME280;66825;51.880;-0.518;2023-02-21T14:08:28;100683.97;;;18.73;44.43
39435;BME280;66825;51.880;-0.518;2023-02-21T14:10:57;100677.97;;;18.71;44.23
39435;BME280;66825;51.880;-0.518;2023-02-21T14:21:28;100662.63;;;18.76;44.20
39435;BME280;66825;51.880;-0.518;2023-02-21T14:24:00;100661.59;;;18.71;44.48
39435;BME280;66825;51.880;-0.518;2023-02-21T14:26:37;100660.69;;;18.76;44.46
39435;BME280;66825;51.880;-0.518;2023-02-21T14:31:53;100657.97;;;18.76;44.33
39435;BME280;66825;51.880;-0.518;2023-02-21T14:34:24;100655.25;;;18.76;44.33
39435;BME280;66825;51.880;-0.518;2023-02-21T14:36:53;100655.25;;;18.76;44.38
39435;BME280;66825;51.880;-0.518;2023-02-21T14:39:21;100644.72;;;18.69;44.37
39435;BME280;66825;51.880;-0.518;2023-02-21T14:42:01;100648.16;;;18.75;44.81
39435;BME280;66825;51.880;-0.518;2023-02-21T14:45:32;100642.72;;;18.75;45.27
39435;BME280;66825;51.880;-0.518;2023-02-21T14:47:54;100612.19;;;18.59;45.05
39435;BME280;66825;51.880;-0.518;2023-02-21T15:04:54;100624.19;;;18.86;45.08
39435;BME280;66825;51.880;-0.518;2023-02-21T15:08:00;100626.34;;;18.89;45.13
39435;BME280;66825;51.880;-0.518;2023-02-21T15:10:30;100632.59;;;18.89;44.99
39435;BME280;66825;51.880;-0.518;2023-02-21T15:12:59;100623.00;;;18.92;45.00
39435;BME280;66825;51.880;-0.518;2023-02-21T15:15:33;100616.13;;;18.95;45.11
39435;BME280;66825;51.880;-0.518;2023-02-21T15:18:09;100566.50;;;18.65;45.00
39435;BME280;66825;51.880;-0.518;2023-02-21T15:20:39;100615.03;;;18.96;44.98
39435;BME280;66825;51.880;-0.518;2023-02-21T15:25:34;100613.13;;;18.96;44.71
39435;BME280;66825;51.880;-0.518;2023-02-21T15:28:02;100610.06;;;18.98;44.67
39435;BME280;66825;51.880;-0.518;2023-02-21T15:30:37;100605.13;;;19.00;44.76
39435;BME280;66825;51.880;-0.518;2023-02-21T15:33:12;100609.75;;;18.99;44.49
39435;BME280;66825;51.880;-0.518;2023-02-21T15:35:42;100601.28;;;19.01;44.54
39435;BME280;66825;51.880;-0.518;2023-02-21T15:38:15;100569.09;;;18.84;44.69
39435;BME280;66825;51.880;-0.518;2023-02-21T15:40:42;100597.22;;;18.98;44.86
39435;BME280;66825;51.880;-0.518;2023-02-21T15:43:32;100593.38;;;18.99;45.08
39435;BME280;66825;51.880;-0.518;2023-02-21T15:46:02;100589.84;;;18.99;44.59
39435;BME280;66825;51.880;-0.518;2023-02-21T15:48:29;100568.91;;;18.94;44.81
39435;BME280;66825;51.880;-0.518;2023-02-21T15:51:01;100583.28;;;19.00;45.08
39435;BME280;66825;51.880;-0.518;2023-02-21T15:53:28;100542.44;;;18.81;45.24
39435;BME280;66825;51.880;-0.518;2023-02-21T15:56:14;100573.03;;;19.05;45.22
39435;BME280;66825;51.880;-0.518;2023-02-21T15:59:03;100569.19;;;19.07;44.70